Time;durP1;ratioP1;P1;durP2;ratioP2;P2;SDS_P1;SDS_P2;PMS_P1;PMS_P2;Temp;Humidity;BMP_temperature;BMP_pressure;BME280_temperature;BME280_humidity;BME280_pressure;Samples;Min_cycle;Max_cycle;Signal;HPM_P1;HPM_P2
2023/04/27 00:00:46;;;;;;;0.10;0.10;;;7.90;99.90;;;;;;5053106;28;20029;-75
2023/04/27 00:03:12;;;;;;;0.35;0.35;;;7.90;99.90;;;;;;5053449;28;20043;-75
2023/04/27 00:05:38;;;;;;;0.10;0.10;;;7.70;99.90;;;;;;5053397;28;20052;-76
2023/04/27 00:08:05;;;;;;;0.10;0.10;;;7.60;99.90;;;;;;5052995;28;20108;-75
2023/04/27 00:10:31;;;;;;;0.10;0.10;;;7.50;99.90;;;;;;5052846;28;20389;-75
2023/04/27 00:12:57;;;;;;;0.10;0.10;;;7.70;99.90;;;;;;5052928;28;20017;-76
2023/04/27 00:15:22;;;;;;;0.10;0.10;;;7.70;99.90;;;;;;5053222;28;20449;-74
2023/04/27 00:17:48;;;;;;;0.10;0.10;;;7.80;99.90;;;;;;5053122;28;20063;-75
2023/04/27 00:20:14;;;;;;;0.10;0.10;;;7.60;99.90;;;;;;5052768;28;20027;-74
2023/04/27 00:22:40;;;;;;;0.13;0.13;;;7.40;99.90;;;;;;5053094;28;20116;-76
2023/04/27 00:25:06;;;;;;;0.10;0.10;;;7.20;99.90;;;;;;5052270;28;20028;-75
2023/04/27 00:27:32;;;;;;;0.17;0.17;;;7.30;99.90;;;;;;5053069;28;20025;-75
2023/04/27 00:29:58;;;;;;;0.40;0.40;;;7.40;99.90;;;;;;5052071;28;20477;-75
2023/04/27 00:32:26;;;;;;;0.10;0.10;;;7.30;99.90;;;;;;5039044;28;20029;-75
2023/04/27 00:34:51;;;;;;;0.10;0.10;;;7.30;99.90;;;;;;5031569;28;20120;-75
2023/04/27 00:37:18;;;;;;;0.10;0.10;;;7.30;99.90;;;;;;5051383;28;20032;-75
2023/04/27 00:39:44;;;;;;;0.10;0.10;;;7.40;99.90;;;;;;5052029;28;20032;-74
2023/04/27 00:42:16;;;;;;;0.15;0.15;;;7.40;99.90;;;;;;5034527;28;20037;-75
2023/04/27 00:44:42;;;;;;;0.10;0.10;;;7.30;99.90;;;;;;5037842;28;20056;-74
2023/04/27 00:47:09;;;;;;;0.38;0.38;;;7.30;99.90;;;;;;5054472;28;20078;-75
2023/04/27 00:49:35;;;;;;;2.35;1.75;;;7.30;99.90;;;;;;5054509;28;20091;-75
2023/04/27 00:52:02;;;;;;;0.32;0.32;;;7.20;99.90;;;;;;5072361;28;20039;-76
2023/04/27 00:54:28;;;;;;;0.10;0.10;;;7.10;99.90;;;;;;5072300;28;20453;-75
2023/04/27 00:56:54;;;;;;;0.10;0.10;;;7.10;99.90;;;;;;5072727;28;20032;-76
2023/04/27 00:59:21;;;;;;;0.10;0.10;;;7.20;99.90;;;;;;5054547;28;20477;-76
2023/04/27 01:01:47;;;;;;;0.10;0.10;;;7.40;99.90;;;;;;5072566;28;20036;-75
2023/04/27 01:04:13;;;;;;;0.10;0.10;;;7.50;99.90;;;;;;5054420;28;20024;-75
2023/04/27 01:06:39;;;;;;;0.20;0.20;;;7.30;99.90;;;;;;5040492;28;20385;-75
2023/04/27 01:09:05;;;;;;;0.20;0.20;;;7.30;99.90;;;;;;5054084;28;20025;-75
2023/04/27 01:11:34;;;;;;;0.10;0.10;;;7.10;99.90;;;;;;5054193;28;20040;-74
2023/04/27 01:14:05;;;;;;;0.10;0.10;;;7.20;99.90;;;;;;5072500;28;20131;-74
2023/04/27 01:16:32;;;;;;;0.20;0.20;;;7.20;99.90;;;;;;5072201;28;20427;-76
2023/04/27 01:18:58;;;;;;;0.10;0.10;;;7.10;99.90;;;;;;5072260;28;20473;-76
2023/04/27 01:21:25;;;;;;;0.10;0.10;;;7.00;99.90;;;;;;5072046;28;20524;-75
2023/04/27 01:23:51;;;;;;;0.80;0.80;;;7.00;99.90;;;;;;5054012;28;20017;-76
2023/04/27 01:26:17;;;;;;;0.10;0.10;;;6.90;99.90;;;;;;5054301;28;20512;-74
2023/04/27 01:28:43;;;;;;;0.28;0.28;;;7.00;99.90;;;;;;5072362;28;20095;-75
2023/04/27 01:31:12;;;;;;;0.30;0.30;;;7.00;99.90;;;;;;5054135;28;20037;-75
2023/04/27 01:33:39;;;;;;;3.30;0.63;;;6.80;99.90;;;;;;5054029;28;20120;-75
2023/04/27 01:36:06;;;;;;;0.10;0.10;;;6.70;99.90;;;;;;5072105;28;20075;-75
2023/04/27 01:38:32;;;;;;;0.20;0.20;;;6.60;99.90;;;;;;5023577;28;20021;-76
2023/04/27 01:41:00;;;;;;;0.10;0.10;;;6.70;99.90;;;;;;5054111;28;20357;-75
2023/04/27 01:43:27;;;;;;;0.30;0.30;;;6.70;99.90;;;;;;5041450;28;20489;-74
2023/04/27 01:45:53;;;;;;;0.10;0.10;;;6.80;99.90;;;;;;5057725;28;20024;-75
2023/04/27 01:48:21;;;;;;;0.45;0.45;;;6.80;99.90;;;;;;5057906;28;20110;-75
2023/04/27 01:50:47;;;;;;;0.47;0.25;;;6.80;99.90;;;;;;5057248;28;20028;-75
2023/04/27 01:53:13;;;;;;;0.10;0.10;;;6.60;99.90;;;;;;5053090;28;20369;-76
2023/04/27 01:55:38;;;;;;;0.20;0.20;;;6.80;99.90;;;;;;5057606;28;20380;-76
2023/04/27 01:58:04;;;;;;;0.10;0.10;;;6.70;99.90;;;;;;5057729;28;20033;-75
2023/04/27 02:00:31;;;;;;;0.40;0.40;;;6.70;99.90;;;;;;5057543;28;20135;-75
2023/04/27 02:02:59;;;;;;;3.40;1.58;;;6.70;99.90;;;;;;5057567;28;20032;-75
2023/04/27 02:05:25;;;;;;;7.68;1.55;;;6.50;99.90;;;;;;5057509;28;20074;-75
2023/04/27 02:07:52;;;;;;;0.10;0.10;;;6.30;99.90;;;;;;5057247;28;20024;-75
2023/04/27 02:10:17;;;;;;;0.10;0.10;;;6.40;99.90;;;;;;5075515;28;20459;-76
2023/04/27 02:12:44;;;;;;;0.10;0.10;;;6.50;99.90;;;;;;5057645;28;20487;-75
2023/04/27 02:15:10;;;;;;;0.10;0.10;;;6.60;99.90;;;;;;5057521;28;20031;-76
2023/04/27 02:17:37;;;;;;;0.17;0.17;;;6.70;99.90;;;;;;5057354;28;20029;-75
2023/04/27 02:20:07;;;;;;;0.20;0.20;;;6.60;99.90;;;;;;5075104;28;20353;-75
2023/04/27 02:22:33;;;;;;;0.35;0.35;;;6.60;99.90;;;;;;5074939;28;20107;-75
2023/04/27 02:24:59;;;;;;;0.10;0.10;;;6.50;99.90;;;;;;5040616;28;20095;-75
2023/04/27 02:27:25;;;;;;;2.17;1.35;;;6.40;99.90;;;;;;5057123;28;20021;-75
2023/04/27 02:29:51;;;;;;;0.10;0.10;;;6.40;99.90;;;;;;5057135;28;20388;-76
2023/04/27 02:32:17;;;;;;;0.10;0.10;;;6.40;99.90;;;;;;5056806;28;20538;-74
2023/04/27 02:34:42;;;;;;;0.10;0.10;;;6.60;99.90;;;;;;5057100;28;20029;-74
2023/04/27 02:37:08;;;;;;;0.20;0.20;;;6.40;99.90;;;;;;5056646;28;20020;-74
2023/04/27 02:39:35;;;;;;;0.10;0.10;;;6.20;99.90;;;;;;5063300;28;20496;-75
2023/04/27 02:42:02;;;;;;;2.90;0.75;;;6.20;99.90;;;;;;5049854;28;20020;-75
2023/04/27 02:44:29;;;;;;;0.40;0.40;;;6.30;99.90;;;;;;5073701;28;20098;-75
2023/04/27 02:46:56;;;;;;;0.10;0.10;;;6.40;99.90;;;;;;5073318;28;20063;-75
2023/04/27 02:49:22;;;;;;;0.10;0.10;;;6.30;99.90;;;;;;5056779;28;20052;-75
2023/04/27 02:51:48;;;;;;;0.10;0.10;;;6.30;99.90;;;;;;5072646;28;20044;-75
2023/04/27 02:54:15;;;;;;;1.95;0.85;;;6.40;99.90;;;;;;5074169;28;20028;-75
2023/04/27 02:56:40;;;;;;;0.50;0.50;;;6.40;99.90;;;;;;5074428;28;20058;-75
2023/04/27 02:59:06;;;;;;;0.80;0.75;;;6.40;99.90;;;;;;5074460;28;20438;-75
2023/04/27 03:01:32;;;;;;;0.10;0.10;;;6.40;99.90;;;;;;5073003;28;20489;-74
2023/04/27 03:03:58;;;;;;;0.43;0.38;;;6.40;99.90;;;;;;5056443;28;20052;-75
2023/04/27 03:06:24;;;;;;;0.32;0.32;;;6.50;99.90;;;;;;5072969;28;20083;-75
2023/04/27 03:08:50;;;;;;;0.10;0.10;;;6.50;99.90;;;;;;5073025;28;20025;-76
2023/04/27 03:11:15;;;;;;;0.10;0.10;;;6.50;99.90;;;;;;5074053;28;20366;-76
2023/04/27 03:13:41;;;;;;;0.20;0.20;;;6.40;99.90;;;;;;5074230;28;20353;-76
2023/04/27 03:16:10;;;;;;;0.13;0.13;;;6.20;99.90;;;;;;5072817;28;20039;-74
2023/04/27 03:18:36;;;;;;;0.30;0.30;;;6.20;99.90;;;;;;5073115;28;20112;-75
2023/04/27 03:21:06;;;;;;;0.10;0.10;;;6.30;99.90;;;;;;5073768;28;20032;-74
2023/04/27 03:23:33;;;;;;;0.32;0.32;;;6.30;99.90;;;;;;5044991;28;20035;-76
2023/04/27 03:25:58;;;;;;;0.10;0.10;;;6.30;99.90;;;;;;5074165;28;20025;-77
2023/04/27 03:28:24;;;;;;;0.10;0.10;;;6.20;99.90;;;;;;5058490;28;20468;-76
2023/04/27 03:30:50;;;;;;;0.10;0.10;;;6.30;99.90;;;;;;5072666;28;20214;-76
2023/04/27 03:33:17;;;;;;;0.10;0.10;;;6.30;99.90;;;;;;5072458;28;20036;-76
2023/04/27 03:35:43;;;;;;;0.68;0.68;;;6.30;99.90;;;;;;5073599;28;20035;-76
2023/04/27 03:38:09;;;;;;;0.93;0.80;;;6.00;99.90;;;;;;5073765;28;20025;-74
2023/04/27 03:40:35;;;;;;;0.65;0.35;;;6.00;99.90;;;;;;5072356;28;20420;-75
2023/04/27 03:43:01;;;;;;;0.10;0.10;;;6.10;99.90;;;;;;5072344;28;20021;-75
2023/04/27 03:45:27;;;;;;;0.10;0.10;;;6.20;99.90;;;;;;5072254;28;20042;-75
2023/04/27 03:47:53;;;;;;;0.00;0.00;;;6.30;99.90;;;;;;5072374;28;20024;-75
2023/04/27 03:50:19;;;;;;;0.10;0.10;;;6.30;99.90;;;;;;5071812;28;20033;-75
2023/04/27 03:52:45;;;;;;;0.10;0.10;;;6.40;99.90;;;;;;5072002;28;20036;-75
2023/04/27 03:55:11;;;;;;;0.03;0.03;;;6.30;99.90;;;;;;5072275;28;20477;-76
2023/04/27 03:57:39;;;;;;;0.10;0.10;;;6.30;99.90;;;;;;5071963;28;20032;-75
2023/04/27 04:00:10;;;;;;;0.10;0.10;;;6.30;99.90;;;;;;5055385;28;20044;-76
2023/04/27 04:02:38;;;;;;;0.30;0.30;;;6.30;99.90;;;;;;5073054;28;20365;-75
2023/04/27 04:05:04;;;;;;;0.43;0.43;;;6.10;99.90;;;;;;5071052;28;20031;-75
2023/04/27 04:07:30;;;;;;;0.17;0.17;;;6.10;99.90;;;;;;5073030;28;20039;-75
2023/04/27 04:09:56;;;;;;;0.10;0.10;;;6.10;99.90;;;;;;5071697;28;20024;-75
2023/04/27 04:12:22;;;;;;;0.20;0.20;;;6.10;99.90;;;;;;5073214;28;20044;-77
2023/04/27 04:14:49;;;;;;;0.30;0.30;;;6.10;99.90;;;;;;5071882;28;20410;-76
2023/04/27 04:17:15;;;;;;;0.20;0.20;;;6.20;99.90;;;;;;5071325;28;20021;-76
2023/04/27 04:19:41;;;;;;;0.10;0.10;;;6.20;99.90;;;;;;5070845;28;20178;-75
2023/04/27 04:22:07;;;;;;;0.10;0.10;;;6.10;99.90;;;;;;5071102;28;20039;-76
2023/04/27 04:24:33;;;;;;;0.10;0.10;;;6.00;99.90;;;;;;5071252;28;20027;-75
2023/04/27 04:26:59;;;;;;;0.10;0.10;;;6.10;99.90;;;;;;5071459;28;20027;-76
2023/04/27 04:29:25;;;;;;;0.10;0.10;;;6.20;99.90;;;;;;5071513;28;20025;-76
2023/04/27 04:31:51;;;;;;;0.20;0.20;;;6.30;99.90;;;;;;5054519;28;20039;-76
2023/04/27 04:34:18;;;;;;;0.10;0.10;;;6.40;99.90;;;;;;5071652;28;20021;-76
2023/04/27 04:36:44;;;;;;;0.10;0.10;;;6.30;99.90;;;;;;5071423;28;20020;-75
2023/04/27 04:39:11;;;;;;;0.10;0.10;;;6.20;99.90;;;;;;5071098;28;20119;-75
2023/04/27 04:41:37;;;;;;;0.10;0.10;;;6.20;99.90;;;;;;5072667;28;20035;-76
2023/04/27 04:44:03;;;;;;;0.10;0.10;;;6.20;99.90;;;;;;5072747;28;20100;-75
2023/04/27 04:46:29;;;;;;;0.10;0.10;;;6.20;99.90;;;;;;5071183;28;20035;-75
2023/04/27 04:48:56;;;;;;;0.10;0.10;;;6.20;99.90;;;;;;5071123;28;20028;-75
2023/04/27 04:51:21;;;;;;;0.10;0.10;;;6.30;99.90;;;;;;5073046;28;20032;-76
2023/04/27 04:53:47;;;;;;;0.10;0.10;;;6.40;99.90;;;;;;5071478;28;20045;-76
2023/04/27 04:56:15;;;;;;;0.10;0.10;;;6.30;99.90;;;;;;5071146;28;20056;-75
2023/04/27 04:58:41;;;;;;;0.10;0.10;;;6.10;99.90;;;;;;5054732;28;20024;-75
2023/04/27 05:01:08;;;;;;;0.10;0.10;;;6.40;99.90;;;;;;5054118;28;20025;-75
2023/04/27 05:03:34;;;;;;;0.10;0.10;;;6.40;99.90;;;;;;5071171;28;20115;-75
2023/04/27 05:05:59;;;;;;;0.10;0.10;;;6.30;99.90;;;;;;5071143;28;20029;-75
2023/04/27 05:08:25;;;;;;;0.10;0.10;;;6.10;99.90;;;;;;5072523;28;20472;-76
2023/04/27 05:10:52;;;;;;;0.10;0.10;;;6.30;99.90;;;;;;5072307;28;20083;-76
2023/04/27 05:13:19;;;;;;;0.15;0.15;;;6.30;99.90;;;;;;5072277;28;20090;-76
2023/04/27 05:15:45;;;;;;;0.82;0.82;;;6.40;99.90;;;;;;5073208;28;20028;-76
2023/04/27 05:18:11;;;;;;;0.77;0.77;;;6.50;99.90;;;;;;5076362;28;20100;-76
2023/04/27 05:20:37;;;;;;;0.10;0.10;;;6.50;99.90;;;;;;5076751;28;20078;-76
2023/04/27 05:23:04;;;;;;;0.10;0.10;;;6.60;99.90;;;;;;5076346;28;20044;-76
2023/04/27 05:25:30;;;;;;;0.10;0.10;;;6.80;99.90;;;;;;5075076;28;20050;-76
2023/04/27 05:27:56;;;;;;;0.10;0.10;;;7.00;99.90;;;;;;5076092;28;20491;-76
2023/04/27 05:30:22;;;;;;;0.10;0.10;;;7.20;99.90;;;;;;5075818;28;20107;-76
2023/04/27 05:32:48;;;;;;;0.17;0.17;;;7.10;99.90;;;;;;5074914;28;20033;-76
2023/04/27 05:35:13;;;;;;;0.15;0.15;;;7.00;99.90;;;;;;5074719;28;20020;-75
2023/04/27 05:37:39;;;;;;;0.10;0.10;;;7.10;99.90;;;;;;5076140;28;20036;-76
2023/04/27 05:40:08;;;;;;;0.10;0.10;;;7.20;99.90;;;;;;5075567;28;20032;-76
2023/04/27 05:42:34;;;;;;;1.45;0.65;;;7.50;99.90;;;;;;5075958;28;20032;-76
2023/04/27 05:45:01;;;;;;;0.10;0.10;;;7.60;99.90;;;;;;5075313;28;20465;-76
2023/04/27 05:47:27;;;;;;;0.10;0.10;;;7.60;99.90;;;;;;5075832;28;20044;-76
2023/04/27 05:49:52;;;;;;;0.68;0.68;;;7.70;99.90;;;;;;5075952;28;20090;-75
2023/04/27 05:52:19;;;;;;;0.20;0.20;;;7.60;99.90;;;;;;5075239;28;20370;-76
2023/04/27 05:54:48;;;;;;;0.10;0.10;;;7.60;99.90;;;;;;5075743;28;20017;-75
2023/04/27 05:57:14;;;;;;;0.17;0.17;;;7.70;99.90;;;;;;5075538;28;20028;-76
2023/04/27 05:59:41;;;;;;;0.13;0.13;;;7.80;99.90;;;;;;5075189;28;20430;-75
2023/04/27 06:02:07;;;;;;;3.50;0.73;;;8.00;99.90;;;;;;5075546;28;20381;-76
2023/04/27 06:04:32;;;;;;;4.13;1.48;;;7.90;99.90;;;;;;5075474;28;20035;-76
2023/04/27 06:06:58;;;;;;;1.27;1.17;;;7.90;99.90;;;;;;5057267;28;20024;-75
2023/04/27 06:09:25;;;;;;;3.00;2.28;;;7.90;99.90;;;;;;5075269;28;20024;-75
2023/04/27 06:11:50;;;;;;;0.40;0.40;;;7.90;99.90;;;;;;5075230;28;20093;-75
2023/04/27 06:14:16;;;;;;;0.10;0.10;;;8.00;99.90;;;;;;5057072;28;20104;-76
2023/04/27 06:16:42;;;;;;;0.13;0.13;;;8.10;99.90;;;;;;5075307;28;20035;-76
2023/04/27 06:19:08;;;;;;;0.35;0.35;;;7.90;99.90;;;;;;5057513;28;20366;-76
2023/04/27 06:21:35;;;;;;;0.52;0.52;;;7.90;99.90;;;;;;5074847;28;20029;-76
2023/04/27 06:24:01;;;;;;;1.35;1.25;;;8.10;99.90;;;;;;5075056;28;20095;-75
2023/04/27 06:26:27;;;;;;;0.80;0.80;;;8.20;99.90;;;;;;5035372;28;20052;-76
2023/04/27 06:28:55;;;;;;;3.50;1.58;;;8.20;99.90;;;;;;5055756;28;20070;-76
2023/04/27 06:31:21;;;;;;;0.17;0.17;;;8.30;99.90;;;;;;5059660;28;20037;-76
2023/04/27 06:33:46;;;;;;;0.65;0.65;;;8.40;99.90;;;;;;5054111;28;20029;-76
2023/04/27 06:36:12;;;;;;;0.47;0.40;;;8.40;99.90;;;;;;5064676;28;20023;-76
2023/04/27 06:38:38;;;;;;;2.53;1.50;;;8.40;99.90;;;;;;5058069;28;20020;-74
2023/04/27 06:41:04;;;;;;;4.40;1.75;;;8.30;99.90;;;;;;5053775;28;20497;-76
2023/04/27 06:43:30;;;;;;;0.98;0.98;;;8.40;99.90;;;;;;5046803;28;20032;-77
2023/04/27 06:45:56;;;;;;;3.80;1.80;;;8.30;99.90;;;;;;5064194;28;20021;-75
2023/04/27 06:48:22;;;;;;;1.55;0.90;;;8.40;99.90;;;;;;5063454;28;20480;-75
2023/04/27 06:50:47;;;;;;;0.52;0.52;;;8.50;99.90;;;;;;5055266;28;20047;-74
2023/04/27 06:53:13;;;;;;;3.35;0.88;;;8.60;99.90;;;;;;5065332;28;20089;-74
2023/04/27 06:55:39;;;;;;;3.47;2.60;;;8.60;99.90;;;;;;5073596;28;20067;-75
2023/04/27 06:58:05;;;;;;;1.92;0.88;;;8.60;99.90;;;;;;5073550;28;20032;-74
2023/04/27 07:00:31;;;;;;;1.75;0.68;;;8.70;99.90;;;;;;5070723;28;20020;-74
2023/04/27 07:02:57;;;;;;;3.20;1.30;;;9.00;99.90;;;;;;5055575;28;20399;-74
2023/04/27 07:05:23;;;;;;;1.67;1.30;;;9.10;99.90;;;;;;5067354;28;20457;-74
2023/04/27 07:07:48;;;;;;;1.08;0.98;;;9.10;99.90;;;;;;5059787;28;20044;-75
2023/04/27 07:10:14;;;;;;;5.40;2.15;;;9.20;99.90;;;;;;5055160;28;20112;-75
2023/04/27 07:12:41;;;;;;;6.75;6.07;;;9.20;99.90;;;;;;5059516;28;20048;-74
2023/04/27 07:15:08;;;;;;;1.55;1.42;;;9.00;99.90;;;;;;5057263;28;20132;-74
2023/04/27 07:17:33;;;;;;;1.75;1.15;;;8.90;99.90;;;;;;5032274;28;20043;-75
2023/04/27 07:20:00;;;;;;;0.68;0.68;;;8.90;99.90;;;;;;5051707;28;20115;-74
2023/04/27 07:22:27;;;;;;;4.45;1.75;;;9.10;99.90;;;;;;5041677;28;20504;-75
2023/04/27 07:24:53;;;;;;;1.50;1.40;;;9.20;99.90;;;;;;5051056;28;20443;-74
2023/04/27 07:27:19;;;;;;;1.15;1.05;;;9.20;99.90;;;;;;5032266;28;20040;-74
2023/04/27 07:29:45;;;;;;;6.47;4.03;;;9.50;99.90;;;;;;5053523;28;20033;-72
2023/04/27 07:32:10;;;;;;;1.25;1.15;;;9.50;99.90;;;;;;5032343;28;20043;-78
2023/04/27 07:34:36;;;;;;;1.30;1.20;;;9.60;99.90;;;;;;5053353;28;20031;-71
2023/04/27 07:37:02;;;;;;;3.65;1.48;;;9.80;99.90;;;;;;5053581;28;20043;-71
2023/04/27 07:39:28;;;;;;;3.95;1.73;;;9.70;99.90;;;;;;5053098;28;20154;-71
2023/04/27 07:41:53;;;;;;;2.22;1.08;;;10.00;99.90;;;;;;5053289;28;20501;-71
2023/04/27 07:44:20;;;;;;;0.40;0.40;;;10.30;99.90;;;;;;5053644;28;20017;-70
2023/04/27 07:46:47;;;;;;;1.50;1.40;;;10.30;99.90;;;;;;5035788;28;20029;-71
2023/04/27 07:49:14;;;;;;;5.18;0.73;;;10.30;99.90;;;;;;5053408;28;20120;-72
2023/04/27 07:51:40;;;;;;;0.45;0.45;;;10.30;99.90;;;;;;5052960;28;20112;-71
2023/04/27 07:54:06;;;;;;;1.50;1.30;;;10.80;99.90;;;;;;5069023;28;20016;-71
2023/04/27 07:56:32;;;;;;;1.45;1.35;;;11.20;99.90;;;;;;5041616;28;20063;-71
2023/04/27 07:58:58;;;;;;;0.85;0.85;;;11.40;99.90;;;;;;5060901;28;20099;-71
2023/04/27 08:01:24;;;;;;;0.10;0.10;;;11.50;99.90;;;;;;5072988;28;20028;-71
2023/04/27 08:03:49;;;;;;;6.32;3.40;;;11.50;99.90;;;;;;5073253;28;20039;-71
2023/04/27 08:06:16;;;;;;;2.30;2.10;;;11.10;99.20;;;;;;5073161;28;20028;-71
2023/04/27 08:08:42;;;;;;;4.18;1.20;;;11.10;99.90;;;;;;5073247;28;20024;-71
2023/04/27 08:11:09;;;;;;;3.20;1.48;;;11.40;99.90;;;;;;5054646;28;20036;-71
2023/04/27 08:13:35;;;;;;;3.40;0.80;;;11.50;99.10;;;;;;5073076;28;20108;-71
2023/04/27 08:16:01;;;;;;;1.65;0.85;;;11.50;98.90;;;;;;5072898;28;20112;-71
2023/04/27 08:18:27;;;;;;;1.73;1.63;;;11.80;98.90;;;;;;5072740;28;20032;-71
2023/04/27 08:20:54;;;;;;;0.85;0.40;;;11.70;98.20;;;;;;5073168;28;20026;-71
2023/04/27 08:23:20;;;;;;;0.35;0.35;;;11.90;99.00;;;;;;5072881;28;20469;-71
2023/04/27 08:25:46;;;;;;;0.10;0.10;;;12.10;98.90;;;;;;5072595;28;20029;-71
2023/04/27 08:28:13;;;;;;;3.60;2.20;;;12.20;98.50;;;;;;5072822;28;20062;-71
2023/04/27 08:30:41;;;;;;;0.30;0.30;;;12.40;98.90;;;;;;5059479;28;20390;-71
2023/04/27 08:33:07;;;;;;;2.03;1.80;;;12.40;97.90;;;;;;5062687;28;20415;-72
2023/04/27 08:35:33;;;;;;;0.75;0.75;;;12.70;97.20;;;;;;5072637;28;20101;-71
2023/04/27 08:37:59;;;;;;;1.10;0.90;;;12.50;96.90;;;;;;5072571;28;20099;-71
2023/04/27 08:40:25;;;;;;;5.47;2.42;;;12.60;96.70;;;;;;5072437;28;20048;-71
2023/04/27 08:42:58;;;;;;;0.57;0.57;;;12.70;96.80;;;;;;5072630;28;20476;-72
2023/04/27 08:45:25;;;;;;;0.82;0.82;;;13.00;96.80;;;;;;5072546;28;20048;-71
2023/04/27 08:47:52;;;;;;;0.45;0.32;;;13.30;95.50;;;;;;5072672;28;20388;-72
2023/04/27 08:50:18;;;;;;;2.28;1.10;;;13.30;95.40;;;;;;5071803;28;20032;-71
2023/04/27 08:52:48;;;;;;;5.15;0.95;;;13.10;95.00;;;;;;5054104;28;20055;-71
2023/04/27 08:55:14;;;;;;;1.55;1.15;;;13.00;94.30;;;;;;5038100;28;20385;-71
2023/04/27 08:57:40;;;;;;;1.75;0.90;;;12.90;93.80;;;;;;5072339;28;20159;-71
2023/04/27 09:00:12;;;;;;;3.30;1.50;;;12.80;92.80;;;;;;5072442;28;20107;-72
2023/04/27 09:02:45;;;;;;;0.52;0.52;;;12.60;92.00;;;;;;5072487;28;20029;-71
2023/04/27 09:05:22;;;;;;;1.95;1.38;;;12.50;92.60;;;;;;5072395;28;20032;-71
2023/04/27 09:08:06;;;;;;;4.63;2.22;;;12.90;92.50;;;;;;5054249;28;20069;-72
2023/04/27 09:10:49;;;;;;;4.07;1.75;;;12.50;92.40;;;;;;5072199;28;20108;-72
2023/04/27 09:13:16;;;;;;;3.88;3.15;;;12.40;93.10;;;;;;5072248;28;20035;-72
2023/04/27 09:15:50;;;;;;;0.20;0.20;;;12.30;92.80;;;;;;5072536;28;20093;-72
2023/04/27 09:18:22;;;;;;;0.30;0.30;;;12.50;94.20;;;;;;5054296;28;20090;-72
2023/04/27 09:20:52;;;;;;;0.68;0.55;;;12.80;93.10;;;;;;5072282;28;20036;-72
2023/04/27 09:23:35;;;;;;;1.98;1.45;;;13.00;92.40;;;;;;5072004;28;20167;-73
2023/04/27 09:26:08;;;;;;;1.33;0.98;;;13.20;92.10;;;;;;5072354;28;20032;-73
2023/04/27 09:28:37;;;;;;;1.60;1.10;;;13.40;91.60;;;;;;5072015;28;20032;-72
2023/04/27 09:31:04;;;;;;;1.55;1.10;;;13.20;91.50;;;;;;5053995;28;20032;-72
2023/04/27 09:33:32;;;;;;;0.45;0.45;;;12.80;91.60;;;;;;5054206;28;20032;-73
2023/04/27 09:35:59;;;;;;;1.67;1.58;;;12.90;92.00;;;;;;5072317;28;20036;-73
2023/04/27 09:38:28;;;;;;;2.17;1.38;;;12.80;92.30;;;;;;5067522;28;20048;-74
2023/04/27 09:40:56;;;;;;;8.48;2.33;;;12.80;92.50;;;;;;5050658;28;20029;-73
2023/04/27 09:43:23;;;;;;;3.70;1.55;;;12.90;91.90;;;;;;5072204;28;20021;-72
2023/04/27 09:45:50;;;;;;;1.70;1.48;;;12.80;92.80;;;;;;5072022;28;20032;-73
2023/04/27 09:48:17;;;;;;;5.75;2.38;;;13.20;92.60;;;;;;5054289;28;20035;-73
2023/04/27 09:50:44;;;;;;;7.80;2.42;;;13.20;92.20;;;;;;5071449;28;20028;-72
2023/04/27 09:53:16;;;;;;;3.28;2.58;;;13.00;91.40;;;;;;5071885;28;20029;-72
2023/04/27 09:55:48;;;;;;;;;;;13.10;92.00;;;;;;5054375;28;20033;-73
2023/04/27 09:58:40;;;;;;;5.93;3.13;;;13.60;92.40;;;;;;5072190;28;19909;-73
2023/04/27 10:01:36;;;;;;;4.18;1.85;;;14.30;92.10;;;;;;5053758;28;20036;-72
2023/04/27 10:04:26;;;;;;;1.67;1.58;;;15.00;90.60;;;;;;5075041;28;20536;-72
2023/04/27 10:06:59;;;;;;;1.25;1.23;;;14.80;90.30;;;;;;5074966;28;20024;-72
2023/04/27 10:09:29;;;;;;;2.97;1.45;;;14.80;90.10;;;;;;5057608;28;20036;-72
2023/04/27 10:11:55;;;;;;;1.00;0.75;;;14.80;89.60;;;;;;5075389;28;20078;-72
2023/04/27 10:14:23;;;;;;;4.07;1.30;;;15.30;89.60;;;;;;5075300;28;20362;-72
2023/04/27 10:16:54;;;;;;;1.13;1.08;;;15.20;88.20;;;;;;5075053;28;20415;-73
2023/04/27 10:19:22;;;;;;;0.00;0.00;;;15.40;90.00;;;;;;5075215;28;20081;-72
2023/04/27 10:21:50;;;;;;;4.63;1.30;;;15.40;88.90;;;;;;5074650;28;20036;-72
2023/04/27 10:24:16;;;;;;;0.47;0.25;;;15.30;86.80;;;;;;5057412;28;20083;-72
2023/04/27 10:26:47;;;;;;;1.63;1.38;;;15.10;87.00;;;;;;5056924;28;20485;-73
2023/04/27 10:29:15;;;;;;;4.30;2.10;;;14.90;85.20;;;;;;5090626;28;20040;-72
2023/04/27 10:31:46;;;;;;;0.47;0.47;;;14.30;86.50;;;;;;5074756;28;20051;-72
2023/04/27 10:34:17;;;;;;;0.77;0.77;;;14.50;88.80;;;;;;5074983;28;20068;-72
2023/04/27 10:36:43;;;;;;;4.55;3.45;;;14.90;87.80;;;;;;5074835;28;20021;-72
2023/04/27 10:39:21;;;;;;;0.47;0.47;;;14.70;86.40;;;;;;5059419;28;20456;-72
2023/04/27 10:41:55;;;;;;;0.82;0.80;;;15.00;87.40;;;;;;5074883;28;20047;-73
2023/04/27 10:44:28;;;;;;;4.55;2.03;;;15.30;89.20;;;;;;5074979;28;20038;-72
2023/04/27 10:46:56;;;;;;;4.20;1.92;;;15.40;84.70;;;;;;5073398;28;20380;-72
2023/04/27 10:49:22;;;;;;;1.02;0.90;;;15.20;87.20;;;;;;5073108;28;20082;-74
2023/04/27 10:51:52;;;;;;;2.33;1.20;;;15.30;86.50;;;;;;5073021;28;20494;-71
2023/04/27 10:54:17;;;;;;;2.28;1.40;;;15.50;85.70;;;;;;5074034;28;20038;-75
2023/04/27 10:56:44;;;;;;;3.47;1.45;;;15.40;86.60;;;;;;5047704;28;20174;-74
2023/04/27 10:59:09;;;;;;;1.60;0.75;;;15.60;87.10;;;;;;5032803;28;20024;-75
2023/04/27 11:01:36;;;;;;;1.48;0.98;;;15.90;85.10;;;;;;5057094;28;20108;-74
2023/04/27 11:04:02;;;;;;;2.85;2.42;;;15.80;85.90;;;;;;5055428;28;20029;-74
2023/04/27 11:06:29;;;;;;;0.35;0.35;;;15.20;85.10;;;;;;5053900;28;20071;-75
2023/04/27 11:08:55;;;;;;;2.90;2.70;;;15.60;86.00;;;;;;5060787;28;20033;-75
2023/04/27 11:11:22;;;;;;;2.17;1.48;;;16.20;84.70;;;;;;5058232;28;20091;-74
2023/04/27 11:13:49;;;;;;;2.55;1.92;;;16.30;83.00;;;;;;5055631;28;20029;-74
2023/04/27 11:16:15;;;;;;;2.10;1.40;;;16.30;83.10;;;;;;5055756;28;20032;-74
2023/04/27 11:18:41;;;;;;;4.75;2.80;;;15.60;84.00;;;;;;5060886;28;20050;-74
2023/04/27 11:21:21;;;;;;;0.70;0.70;;;15.70;84.00;;;;;;5061415;28;20248;-75
2023/04/27 11:23:46;;;;;;;1.83;1.10;;;15.70;85.10;;;;;;5057751;28;20370;-74
2023/04/27 11:26:18;;;;;;;0.10;0.10;;;16.20;84.20;;;;;;5058660;28;20035;-75
2023/04/27 11:28:55;;;;;;;3.38;2.10;;;16.60;85.40;;;;;;5056535;28;20378;-75
2023/04/27 11:31:21;;;;;;;1.67;1.58;;;17.20;80.60;;;;;;5053810;28;20040;-75
2023/04/27 11:33:48;;;;;;;3.85;2.47;;;17.50;78.90;;;;;;5063606;28;20040;-75
2023/04/27 11:36:19;;;;;;;0.57;0.57;;;17.00;80.00;;;;;;5056932;28;20033;-75
2023/04/27 11:38:45;;;;;;;6.28;3.13;;;17.50;80.50;;;;;;5056430;28;21881;-74
2023/04/27 11:41:12;;;;;;;2.53;1.10;;;17.10;78.70;;;;;;5053418;28;20028;-75
2023/04/27 11:43:44;;;;;;;6.85;3.00;;;17.20;80.80;;;;;;5052734;28;20045;-74
2023/04/27 11:46:11;;;;;;;4.35;1.40;;;17.00;82.10;;;;;;5029143;28;20396;-75
2023/04/27 11:48:37;;;;;;;4.45;2.28;;;17.70;78.10;;;;;;5060581;28;20036;-75
2023/04/27 11:51:04;;;;;;;2.28;1.42;;;17.90;78.40;;;;;;5054756;28;20504;-75
2023/04/27 11:53:32;;;;;;;0.63;0.63;;;17.60;76.80;;;;;;5065017;28;20041;-74
2023/04/27 11:56:01;;;;;;;2.03;1.42;;;17.40;81.20;;;;;;5058603;28;20020;-75
2023/04/27 11:58:29;;;;;;;2.83;1.33;;;17.80;77.00;;;;;;5056059;28;20017;-75
2023/04/27 12:00:57;;;;;;;0.80;0.80;;;18.50;78.60;;;;;;5060094;28;20021;-75
2023/04/27 12:03:24;;;;;;;0.82;0.82;;;19.00;80.10;;;;;;5039975;28;20047;-74
2023/04/27 12:05:51;;;;;;;9.57;1.83;;;19.20;79.40;;;;;;5071325;28;20044;-75
2023/04/27 12:08:18;;;;;;;0.57;0.57;;;19.70;78.00;;;;;;5056065;28;20473;-75
2023/04/27 12:10:44;;;;;;;0.75;0.30;;;20.10;78.20;;;;;;5053149;28;20063;-75
2023/04/27 12:13:11;;;;;;;0.60;0.60;;;20.70;75.40;;;;;;5059611;28;20047;-75
2023/04/27 12:15:37;;;;;;;0.75;0.75;;;20.10;73.60;;;;;;5056697;28;20024;-75
2023/04/27 12:18:03;;;;;;;3.42;2.10;;;19.90;76.00;;;;;;5057045;28;20053;-74
2023/04/27 12:20:29;;;;;;;7.43;1.85;;;19.40;73.00;;;;;;5057472;28;20023;-74
2023/04/27 12:22:56;;;;;;;0.50;0.50;;;18.70;74.50;;;;;;5052250;28;20111;-74
2023/04/27 12:25:22;;;;;;;0.65;0.65;;;18.60;75.40;;;;;;5044060;28;20030;-74
2023/04/27 12:27:49;;;;;;;0.17;0.17;;;18.80;73.90;;;;;;5054807;28;20044;-75
2023/04/27 12:30:14;;;;;;;4.57;2.55;;;19.00;73.80;;;;;;5056123;28;20480;-74
2023/04/27 12:32:40;;;;;;;0.28;0.28;;;18.50;71.00;;;;;;5037697;28;20112;-74
2023/04/27 12:35:08;;;;;;;2.40;0.80;;;18.80;74.10;;;;;;5052004;28;20466;-73
2023/04/27 12:37:34;;;;;;;1.15;0.63;;;19.40;74.20;;;;;;5057490;28;20032;-74
2023/04/27 12:40:00;;;;;;;0.13;0.13;;;19.90;74.30;;;;;;5055393;28;20397;-73
2023/04/27 12:42:26;;;;;;;0.75;0.65;;;20.30;71.70;;;;;;5056302;28;20032;-73
2023/04/27 12:44:52;;;;;;;0.38;0.38;;;20.60;73.10;;;;;;5053218;28;20021;-73
2023/04/27 12:47:21;;;;;;;0.47;0.47;;;20.30;72.30;;;;;;5074848;28;20029;-73
2023/04/27 12:49:47;;;;;;;2.85;0.85;;;20.40;72.60;;;;;;5056529;28;20112;-73
2023/04/27 12:52:13;;;;;;;4.03;1.90;;;20.00;70.90;;;;;;5057175;28;20175;-73